메인 페이지
METAR-TAF:

METAR-TAF

공항 :

Bethel, 알래스카, 미국

위도: 60-46-47N, 경도: 161-50-16W, 고도: 38m

현재 날씨관측

예보는 1 시간 6분 전, 06:53시(UTC)에 발표되었습니다.
서북서4kt
온도 23°C
습도 53%
기압 1017 hPa
시정: 16.1km
맑음

METAR: PABE 230653Z 30004KT 10SM CLR 23/13 A3003 RMK AO2 SLP169 T02330133

시각: 23:59 (07:59 UTC)

예보

예보는 2 시간 29분 전, 05:30시(UTC)에 발표되었습니다.
예보 대상 시간: 23일 06시부터 24일 06시까지 (UTC)
북서5kt
시정: 10km
맑음
23일 1400시부터 (UTC)
여러 방향의 바람 4kt
시정: 10km
고도 100ft 상공 구름 조금
시계 내 안개
23일 1800시부터 (UTC)
4kt
시정: 10km
맑음

TAF: PABE 230530Z 2306/2406 32005KT P6SM SKC FM231400 VRB04KT P6SM VCFG FEW001 FM231800 36004KT P6SM SKC

4,000개 이상의 공항 관측 자료 및 예보 (METAR 및 TAF 보고).

지도상에서 검색 가능한 기상관측소가 노란 점과 빨간 점으로 표시되어 있습니다.

기상관측소 명을 보려면 표시 위로 마우스를 이동하세요.

날씨 관측과 예보를 보려면 클릭하세요.

지도 변경 : 확대하려면 엑스 표시가 있는 녹색 버튼, 축소하려면 빼기 표시가 있는 녹색 버튼, 다음 페이지의 지도를 보려면 녹색 화살표를 클릭하세요.


METAR-TAF: